sensor_id;sensor_type;location;lat;lon;timestamp;pressure;altitude;pressure_sealevel;temperature;humidity
31681;BME280;18281;51.364;9.566;2023-05-11T00:02:11;99748.00;;;11.04;100.00
31681;BME280;18281;51.364;9.566;2023-05-11T00:04:36;99755.78;;;11.06;100.00
31681;BME280;18281;51.364;9.566;2023-05-11T00:07:02;99755.16;;;11.02;100.00
31681;BME280;18281;51.364;9.566;2023-05-11T00:09:27;99749.22;;;10.99;100.00
31681;BME280;18281;51.364;9.566;2023-05-11T00:11:52;99759.53;;;11.02;100.00
31681;BME280;18281;51.364;9.566;2023-05-11T00:14:19;99745.69;;;11.00;100.00
31681;BME280;18281;51.364;9.566;2023-05-11T00:16:44;99750.38;;;10.95;100.00
31681;BME280;18281;51.364;9.566;2023-05-11T00:19:10;99754.69;;;10.96;100.00
31681;BME280;18281;51.364;9.566;2023-05-11T00:21:35;99756.53;;;10.94;100.00
31681;BME280;18281;51.364;9.566;2023-05-11T00:24:01;99751.41;;;10.92;100.00
31681;BME280;18281;51.364;9.566;2023-05-11T00:26:26;99748.66;;;10.94;100.00
31681;BME280;18281;51.364;9.566;2023-05-11T00:28:52;99750.72;;;10.88;100.00
31681;BME280;18281;51.364;9.566;2023-05-11T00:31:17;99750.81;;;10.87;100.00
31681;BME280;18281;51.364;9.566;2023-05-11T00:33:42;99743.03;;;10.85;100.00
31681;BME280;18281;51.364;9.566;2023-05-11T00:36:08;99748.28;;;10.85;100.00
31681;BME280;18281;51.364;9.566;2023-05-11T00:38:33;99749.31;;;10.83;100.00
31681;BME280;18281;51.364;9.566;2023-05-11T00:41:01;99748.28;;;10.85;100.00
31681;BME280;18281;51.364;9.566;2023-05-11T00:43:27;99739.69;;;10.83;100.00
31681;BME280;18281;51.364;9.566;2023-05-11T00:45:52;99744.94;;;10.83;100.00
31681;BME280;18281;51.364;9.566;2023-05-11T00:48:18;99746.78;;;10.81;100.00
31681;BME280;18281;51.364;9.566;2023-05-11T00:50:43;99742.47;;;10.80;100.00
31681;BME280;18281;51.364;9.566;2023-05-11T00:53:09;99737.28;;;10.79;100.00
31681;BME280;18281;51.364;9.566;2023-05-11T00:55:35;99740.84;;;10.78;100.00
31681;BME280;18281;51.364;9.566;2023-05-11T00:58:01;99741.63;;;10.80;100.00
31681;BME280;18281;51.364;9.566;2023-05-11T01:00:29;99735.69;;;10.76;100.00
31681;BME280;18281;51.364;9.566;2023-05-11T01:02:55;99739.34;;;10.73;100.00
31681;BME280;18281;51.364;9.566;2023-05-11T01:05:21;99742.06;;;10.72;100.00
31681;BME280;18281;51.364;9.566;2023-05-11T01:07:59;99746.38;;;10.73;100.00
31681;BME280;18281;51.364;9.566;2023-05-11T01:13:08;99739.44;;;10.72;100.00
31681;BME280;18281;51.364;9.566;2023-05-11T01:15:45;99748.25;;;10.71;100.00
31681;BME280;18281;51.364;9.566;2023-05-11T01:20:43;99746.84;;;10.65;100.00
31681;BME280;18281;51.364;9.566;2023-05-11T01:23:23;99739.06;;;10.64;100.00
31681;BME280;18281;51.364;9.566;2023-05-11T01:31:31;99745.06;;;10.66;100.00
31681;BME280;18281;51.364;9.566;2023-05-11T01:34:01;99742.06;;;10.57;100.00
31681;BME280;18281;51.364;9.566;2023-05-11T01:36:31;99746.28;;;10.60;100.00
31681;BME280;18281;51.364;9.566;2023-05-11T01:39:01;99740.19;;;10.59;100.00
31681;BME280;18281;51.364;9.566;2023-05-11T01:41:28;99742.81;;;10.59;100.00
31681;BME280;18281;51.364;9.566;2023-05-11T01:43:57;99745.59;;;10.56;100.00
31681;BME280;18281;51.364;9.566;2023-05-11T01:46:25;99748.22;;;10.56;100.00
31681;BME280;18281;51.364;9.566;2023-05-11T01:48:55;99742.16;;;10.56;100.00
31681;BME280;18281;51.364;9.566;2023-05-11T01:51:27;99744.03;;;10.54;100.00
31681;BME280;18281;51.364;9.566;2023-05-11T01:53:55;99742.25;;;10.54;100.00
31681;BME280;18281;51.364;9.566;2023-05-11T01:56:23;99744.88;;;10.54;100.00
31681;BME280;18281;51.364;9.566;2023-05-11T01:58:51;99751.03;;;10.53;100.00
31681;BME280;18281;51.364;9.566;2023-05-11T02:01:18;99746.09;;;10.49;100.00
31681;BME280;18281;51.364;9.566;2023-05-11T02:03:45;99753.09;;;10.48;100.00
31681;BME280;18281;51.364;9.566;2023-05-11T02:06:12;99749.53;;;10.49;100.00
31681;BME280;18281;51.364;9.566;2023-05-11T02:08:40;99755.63;;;10.50;100.00
31681;BME280;18281;51.364;9.566;2023-05-11T02:11:06;99750.47;;;10.48;100.00
31681;BME280;18281;51.364;9.566;2023-05-11T02:13:33;99747.94;;;10.47;100.00
31681;BME280;18281;51.364;9.566;2023-05-11T02:16:00;99754.22;;;10.44;100.00
31681;BME280;18281;51.364;9.566;2023-05-11T02:18:27;99745.31;;;10.47;100.00
31681;BME280;18281;51.364;9.566;2023-05-11T02:20:53;99758.44;;;10.47;100.00
31681;BME280;18281;51.364;9.566;2023-05-11T02:23:21;99746.53;;;10.41;100.00
31681;BME280;18281;51.364;9.566;2023-05-11T02:25:50;99754.41;;;10.41;100.00
31681;BME280;18281;51.364;9.566;2023-05-11T02:28:16;99744.84;;;10.40;100.00
31681;BME280;18281;51.364;9.566;2023-05-11T02:30:47;99757.13;;;10.39;100.00
31681;BME280;18281;51.364;9.566;2023-05-11T02:33:19;99758.16;;;10.37;100.00
31681;BME280;18281;51.364;9.566;2023-05-11T02:35:46;99761.69;;;10.36;100.00
31681;BME280;18281;51.364;9.566;2023-05-11T02:38:14;99754.59;;;10.38;100.00
31681;BME280;18281;51.364;9.566;2023-05-11T02:40:45;99757.22;;;10.38;100.00
31681;BME280;18281;51.364;9.566;2023-05-11T02:43:13;99755.44;;;10.38;100.00
31681;BME280;18281;51.364;9.566;2023-05-11T02:45:42;99758.16;;;10.37;100.00
31681;BME280;18281;51.364;9.566;2023-05-11T02:48:13;99755.53;;;10.37;100.00
31681;BME280;18281;51.364;9.566;2023-05-11T02:50:41;99758.16;;;10.37;100.00
31681;BME280;18281;51.364;9.566;2023-05-11T02:53:13;99751.88;;;10.39;100.00
31681;BME280;18281;51.364;9.566;2023-05-11T02:55:39;99754.75;;;10.35;100.00
31681;BME280;18281;51.364;9.566;2023-05-11T02:58:06;99757.47;;;10.33;100.00
31681;BME280;18281;51.364;9.566;2023-05-11T03:00:31;99754.75;;;10.35;100.00
31681;BME280;18281;51.364;9.566;2023-05-11T03:02:57;99760.00;;;10.35;100.00
31681;BME280;18281;51.364;9.566;2023-05-11T03:05:23;99759.25;;;10.33;100.00
31681;BME280;18281;51.364;9.566;2023-05-11T03:07:50;99760.00;;;10.35;100.00
31681;BME280;18281;51.364;9.566;2023-05-11T03:10:16;99756.66;;;10.33;100.00
31681;BME280;18281;51.364;9.566;2023-05-11T03:12:42;99748.00;;;10.31;100.00
31681;BME280;18281;51.364;9.566;2023-05-11T03:15:09;99758.78;;;10.26;100.00
31681;BME280;18281;51.364;9.566;2023-05-11T03:17:36;99759.53;;;10.28;100.00
31681;BME280;18281;51.364;9.566;2023-05-11T03:20:03;99753.44;;;10.28;100.00
31681;BME280;18281;51.364;9.566;2023-05-11T03:22:30;99752.66;;;10.25;100.00
31681;BME280;18281;51.364;9.566;2023-05-11T03:24:57;99759.72;;;10.25;100.00
31681;BME280;18281;51.364;9.566;2023-05-11T03:27:23;99754.91;;;10.17;100.00
31681;BME280;18281;51.364;9.566;2023-05-11T03:29:51;99752.13;;;10.20;100.00
31681;BME280;18281;51.364;9.566;2023-05-11T03:32:16;99755.56;;;10.21;100.00
31681;BME280;18281;51.364;9.566;2023-05-11T03:34:42;99747.81;;;10.19;100.00
31681;BME280;18281;51.364;9.566;2023-05-11T03:37:09;99757.38;;;10.20;100.00
31681;BME280;18281;51.364;9.566;2023-05-11T03:39:35;99754.81;;;10.19;100.00
31681;BME280;18281;51.364;9.566;2023-05-11T03:42:04;99754.91;;;10.17;100.00
31681;BME280;18281;51.364;9.566;2023-05-11T03:44:31;99756.59;;;10.18;100.00
31681;BME280;18281;51.364;9.566;2023-05-11T03:46:59;99750.56;;;10.16;100.00
31681;BME280;18281;51.364;9.566;2023-05-11T03:49:26;99749.75;;;10.16;100.00
31681;BME280;18281;51.364;9.566;2023-05-11T03:51:53;99754.16;;;10.15;100.00
31681;BME280;18281;51.364;9.566;2023-05-11T03:54:19;99746.44;;;10.12;100.00
31681;BME280;18281;51.364;9.566;2023-05-11T03:56:44;99742.91;;;10.13;100.00
31681;BME280;18281;51.364;9.566;2023-05-11T03:59:15;99748.91;;;10.15;100.00
31681;BME280;18281;51.364;9.566;2023-05-11T04:01:41;99746.63;;;10.09;100.00
31681;BME280;18281;51.364;9.566;2023-05-11T04:04:07;99744.78;;;10.11;100.00
31681;BME280;18281;51.364;9.566;2023-05-11T04:06:33;99748.44;;;10.08;100.00
31681;BME280;18281;51.364;9.566;2023-05-11T04:08:58;99749.25;;;10.09;100.00
31681;BME280;18281;51.364;9.566;2023-05-11T04:11:24;99747.56;;;10.08;100.00
31681;BME280;18281;51.364;9.566;2023-05-11T04:13:50;99747.56;;;10.08;100.00
31681;BME280;18281;51.364;9.566;2023-05-11T04:16:15;99752.91;;;10.06;100.00
31681;BME280;18281;51.364;9.566;2023-05-11T04:18:40;99745.13;;;10.05;100.00
31681;BME280;18281;51.364;9.566;2023-05-11T04:21:06;99749.59;;;10.03;100.00
31681;BME280;18281;51.364;9.566;2023-05-11T04:23:31;99754.09;;;10.01;100.00
31681;BME280;18281;51.364;9.566;2023-05-11T04:25:56;99759.16;;;10.04;100.00
31681;BME280;18281;51.364;9.566;2023-05-11T04:28:22;99753.19;;;10.02;100.00
31681;BME280;18281;51.364;9.566;2023-05-11T04:30:56;99748.94;;;9.99;100.00
31681;BME280;18281;51.364;9.566;2023-05-11T04:33:24;99752.41;;;10.00;100.00
31681;BME280;18281;51.364;9.566;2023-05-11T04:35:51;99759.59;;;9.96;100.00
31681;BME280;18281;51.364;9.566;2023-05-11T04:38:18;99758.66;;;9.97;100.00
31681;BME280;18281;51.364;9.566;2023-05-11T04:40:43;99763.00;;;9.98;100.00
31681;BME280;18281;51.364;9.566;2023-05-11T04:43:09;99759.59;;;9.96;100.00
31681;BME280;18281;51.364;9.566;2023-05-11T04:45:34;99761.28;;;9.97;100.00
31681;BME280;18281;51.364;9.566;2023-05-11T04:48:00;99761.28;;;9.97;100.00
31681;BME280;18281;51.364;9.566;2023-05-11T04:50:25;99756.91;;;9.98;100.00
31681;BME280;18281;51.364;9.566;2023-05-11T04:52:51;99761.19;;;9.99;100.00
31681;BME280;18281;51.364;9.566;2023-05-11T04:55:16;99758.50;;;10.00;100.00
31681;BME280;18281;51.364;9.566;2023-05-11T04:57:41;99761.06;;;10.02;100.00
31681;BME280;18281;51.364;9.566;2023-05-11T05:00:07;99761.13;;;10.00;100.00
31681;BME280;18281;51.364;9.566;2023-05-11T05:02:33;99763.66;;;10.02;100.00
31681;BME280;18281;51.364;9.566;2023-05-11T05:05:00;99767.22;;;10.01;100.00
31681;BME280;18281;51.364;9.566;2023-05-11T05:07:26;99771.63;;;10.00;100.00
31681;BME280;18281;51.364;9.566;2023-05-11T05:09:52;99763.75;;;10.00;100.00
31681;BME280;18281;51.364;9.566;2023-05-11T05:12:17;99767.22;;;10.01;100.00
31681;BME280;18281;51.364;9.566;2023-05-11T05:14:42;99769.94;;;9.99;100.00
31681;BME280;18281;51.364;9.566;2023-05-11T05:17:09;99766.38;;;10.00;100.00
31681;BME280;18281;51.364;9.566;2023-05-11T05:19:34;99765.53;;;10.00;100.00
31681;BME280;18281;51.364;9.566;2023-05-11T05:22:00;99760.28;;;10.00;100.00
31681;BME280;18281;51.364;9.566;2023-05-11T05:24:25;99769.75;;;10.02;100.00
31681;BME280;18281;51.364;9.566;2023-05-11T05:26:50;99776.88;;;10.00;100.00
31681;BME280;18281;51.364;9.566;2023-05-11T05:29:16;99773.38;;;10.00;100.00
31681;BME280;18281;51.364;9.566;2023-05-11T05:31:41;99773.28;;;10.01;100.00
31681;BME280;18281;51.364;9.566;2023-05-11T05:34:06;99777.63;;;10.02;100.00
31681;BME280;18281;51.364;9.566;2023-05-11T05:36:32;99774.31;;;9.99;100.00
31681;BME280;18281;51.364;9.566;2023-05-11T05:38:57;99775.75;;;10.04;100.00
31681;BME280;18281;51.364;9.566;2023-05-11T05:41:23;99785.47;;;10.02;100.00
31681;BME280;18281;51.364;9.566;2023-05-11T05:43:49;99783.63;;;10.04;100.00
31681;BME280;18281;51.364;9.566;2023-05-11T05:46:15;99784.19;;;10.09;100.00
31681;BME280;18281;51.364;9.566;2023-05-11T05:48:41;99786.03;;;10.54;100.00
31681;BME280;18281;51.364;9.566;2023-05-11T05:51:06;99779.16;;;10.96;100.00
31681;BME280;18281;51.364;9.566;2023-05-11T05:53:32;99784.69;;;11.20;100.00
31681;BME280;18281;51.364;9.566;2023-05-11T05:55:57;99785.97;;;11.42;100.00
31681;BME280;18281;51.364;9.566;2023-05-11T05:58:23;99782.66;;;11.53;100.00
31681;BME280;18281;51.364;9.566;2023-05-11T06:00:48;99784.09;;;11.58;100.00
31681;BME280;18281;51.364;9.566;2023-05-11T06:03:13;99780.94;;;11.66;100.00
31681;BME280;18281;51.364;9.566;2023-05-11T06:05:39;99786.66;;;11.73;100.00
31681;BME280;18281;51.364;9.566;2023-05-11T06:08:04;99789.84;;;11.78;100.00
31681;BME280;18281;51.364;9.566;2023-05-11T06:10:30;99791.44;;;11.81;100.00
31681;BME280;18281;51.364;9.566;2023-05-11T06:12:55;99790.94;;;11.88;100.00
31681;BME280;18281;51.364;9.566;2023-05-11T06:15:20;99793.13;;;11.96;100.00
31681;BME280;18281;51.364;9.566;2023-05-11T06:17:47;99790.72;;;12.06;100.00
31681;BME280;18281;51.364;9.566;2023-05-11T06:20:12;99800.09;;;12.10;100.00
31681;BME280;18281;51.364;9.566;2023-05-11T06:22:38;99800.50;;;12.04;100.00
31681;BME280;18281;51.364;9.566;2023-05-11T06:25:04;99793.72;;;12.00;100.00
31681;BME280;18281;51.364;9.566;2023-05-11T06:27:30;99793.94;;;11.97;100.00
31681;BME280;18281;51.364;9.566;2023-05-11T06:29:55;99790.03;;;11.89;100.00
31681;BME280;18281;51.364;9.566;2023-05-11T06:32:21;99794.72;;;11.84;100.00
31681;BME280;18281;51.364;9.566;2023-05-11T06:34:46;99798.06;;;11.86;100.00
31681;BME280;18281;51.364;9.566;2023-05-11T06:37:11;99788.50;;;11.85;100.00
31681;BME280;18281;51.364;9.566;2023-05-11T06:39:44;99785.69;;;11.88;100.00
31681;BME280;18281;51.364;9.566;2023-05-11T06:42:09;99782.75;;;11.93;100.00
31681;BME280;18281;51.364;9.566;2023-05-11T06:44:35;99793.00;;;11.98;100.00
31681;BME280;18281;51.364;9.566;2023-05-11T06:47:00;99787.88;;;12.09;100.00
31681;BME280;18281;51.364;9.566;2023-05-11T06:49:26;99791.19;;;12.25;100.00
31681;BME280;18281;51.364;9.566;2023-05-11T06:51:51;99787.75;;;12.38;100.00
31681;BME280;18281;51.364;9.566;2023-05-11T06:54:16;99784.16;;;12.39;100.00
31681;BME280;18281;51.364;9.566;2023-05-11T06:56:42;99787.84;;;12.49;100.00
31681;BME280;18281;51.364;9.566;2023-05-11T06:59:07;99790.31;;;12.52;100.00
31681;BME280;18281;51.364;9.566;2023-05-11T07:01:32;99797.97;;;12.55;100.00
31681;BME280;18281;51.364;9.566;2023-05-11T07:03:58;99788.00;;;12.61;100.00
31681;BME280;18281;51.364;9.566;2023-05-11T07:06:23;99795.16;;;12.71;100.00
31681;BME280;18281;51.364;9.566;2023-05-11T07:08:48;99786.72;;;12.66;100.00
31681;BME280;18281;51.364;9.566;2023-05-11T07:11:14;99794.31;;;12.71;100.00
31681;BME280;18281;51.364;9.566;2023-05-11T07:13:39;99788.72;;;12.75;100.00
31681;BME280;18281;51.364;9.566;2023-05-11T07:16:05;99791.78;;;12.82;100.00
31681;BME280;18281;51.364;9.566;2023-05-11T07:18:31;99796.31;;;12.80;100.00
31681;BME280;18281;51.364;9.566;2023-05-11T07:20:56;99796.72;;;12.87;100.00
31681;BME280;18281;51.364;9.566;2023-05-11T07:23:22;99797.09;;;12.95;100.00
31681;BME280;18281;51.364;9.566;2023-05-11T07:25:47;99789.28;;;12.93;100.00
31681;BME280;18281;51.364;9.566;2023-05-11T07:28:12;99790.56;;;13.01;100.00
31681;BME280;18281;51.364;9.566;2023-05-11T07:30:38;99797.28;;;13.05;100.00
31681;BME280;18281;51.364;9.566;2023-05-11T07:33:03;99792.84;;;13.05;100.00
31681;BME280;18281;51.364;9.566;2023-05-11T07:35:29;99792.56;;;13.10;100.00
31681;BME280;18281;51.364;9.566;2023-05-11T07:37:54;99795.19;;;13.10;100.00
31681;BME280;18281;51.364;9.566;2023-05-11T07:40:20;99793.91;;;13.16;100.00
31681;BME280;18281;51.364;9.566;2023-05-11T07:42:45;99792.22;;;13.15;100.00
31681;BME280;18281;51.364;9.566;2023-05-11T07:45:10;99796.22;;;13.20;100.00
31681;BME280;18281;51.364;9.566;2023-05-11T07:47:36;99794.66;;;13.18;100.00
31681;BME280;18281;51.364;9.566;2023-05-11T07:50:01;99797.91;;;13.21;100.00
31681;BME280;18281;51.364;9.566;2023-05-11T07:52:27;99795.16;;;13.23;100.00
31681;BME280;18281;51.364;9.566;2023-05-11T07:54:52;99790.75;;;13.23;100.00
31681;BME280;18281;51.364;9.566;2023-05-11T07:57:18;99789.78;;;13.24;100.00
31681;BME280;18281;51.364;9.566;2023-05-11T07:59:44;99791.97;;;13.31;100.00
31681;BME280;18281;51.364;9.566;2023-05-11T08:02:09;99794.97;;;13.26;100.00
31681;BME280;18281;51.364;9.566;2023-05-11T08:04:35;99788.81;;;13.25;100.00
31681;BME280;18281;51.364;9.566;2023-05-11T08:07:00;99795.38;;;13.20;100.00
31681;BME280;18281;51.364;9.566;2023-05-11T08:09:26;99786.75;;;13.18;100.00
31681;BME280;18281;51.364;9.566;2023-05-11T08:11:51;99789.56;;;13.15;100.00
31681;BME280;18281;51.364;9.566;2023-05-11T08:14:19;99794.03;;;13.14;100.00
31681;BME280;18281;51.364;9.566;2023-05-11T08:16:45;99791.38;;;13.14;100.00
31681;BME280;18281;51.364;9.566;2023-05-11T08:19:10;99793.69;;;13.19;100.00
31681;BME280;18281;51.364;9.566;2023-05-11T08:21:37;99791.63;;;13.11;100.00
31681;BME280;18281;51.364;9.566;2023-05-11T08:24:02;99796.44;;;13.17;100.00
31681;BME280;18281;51.364;9.566;2023-05-11T08:26:28;99794.44;;;13.21;100.00
31681;BME280;18281;51.364;9.566;2023-05-11T08:28:53;99799.78;;;13.32;100.00
31681;BME280;18281;51.364;9.566;2023-05-11T08:31:18;99796.50;;;13.41;100.00
31681;BME280;18281;51.364;9.566;2023-05-11T08:33:44;99797.13;;;13.45;100.00
31681;BME280;18281;51.364;9.566;2023-05-11T08:36:09;99790.38;;;13.54;100.00
31681;BME280;18281;51.364;9.566;2023-05-11T08:38:37;99798.06;;;13.57;100.00
31681;BME280;18281;51.364;9.566;2023-05-11T08:41:02;99798.69;;;13.61;100.00
31681;BME280;18281;51.364;9.566;2023-05-11T08:43:29;99793.19;;;13.64;100.00
31681;BME280;18281;51.364;9.566;2023-05-11T08:45:56;99793.81;;;13.67;100.00
31681;BME280;18281;51.364;9.566;2023-05-11T08:48:25;99799.69;;;13.71;100.00
31681;BME280;18281;51.364;9.566;2023-05-11T08:50:50;99798.38;;;13.76;100.00
31681;BME280;18281;51.364;9.566;2023-05-11T08:53:17;99791.22;;;13.79;100.00
31681;BME280;18281;51.364;9.566;2023-05-11T08:55:44;99798.78;;;13.83;100.00
31681;BME280;18281;51.364;9.566;2023-05-11T08:58:10;99797.13;;;13.82;100.00
31681;BME280;18281;51.364;9.566;2023-05-11T09:00:39;99789.81;;;13.86;100.00
31681;BME280;18281;51.364;9.566;2023-05-11T09:03:04;99799.00;;;13.93;100.00
31681;BME280;18281;51.364;9.566;2023-05-11T09:05:31;99795.63;;;13.91;100.00
31681;BME280;18281;51.364;9.566;2023-05-11T09:07:59;99790.97;;;13.95;100.00
31681;BME280;18281;51.364;9.566;2023-05-11T09:10:28;99781.88;;;13.99;100.00
31681;BME280;18281;51.364;9.566;2023-05-11T09:12:54;99783.44;;;14.01;100.00
31681;BME280;18281;51.364;9.566;2023-05-11T09:15:19;99793.88;;;14.03;100.00
31681;BME280;18281;51.364;9.566;2023-05-11T09:17:44;99785.13;;;14.02;100.00
31681;BME280;18281;51.364;9.566;2023-05-11T09:20:10;99788.59;;;14.03;100.00
31681;BME280;18281;51.364;9.566;2023-05-11T09:22:43;99785.84;;;14.04;100.00
31681;BME280;18281;51.364;9.566;2023-05-11T09:25:13;99792.69;;;14.07;100.00
31681;BME280;18281;51.364;9.566;2023-05-11T09:27:41;99791.53;;;14.11;100.00
31681;BME280;18281;51.364;9.566;2023-05-11T09:30:25;99786.88;;;14.15;100.00
31681;BME280;18281;51.364;9.566;2023-05-11T09:32:53;99785.16;;;14.14;100.00
31681;BME280;18281;51.364;9.566;2023-05-11T09:35:27;99792.78;;;14.18;100.00
31681;BME280;18281;51.364;9.566;2023-05-11T09:38:09;99785.44;;;14.22;100.00
31681;BME280;18281;51.364;9.566;2023-05-11T09:40:40;99785.81;;;14.29;100.00
31681;BME280;18281;51.364;9.566;2023-05-11T09:43:15;99781.03;;;14.22;100.00
31681;BME280;18281;51.364;9.566;2023-05-11T09:45:43;99787.50;;;14.30;100.00
31681;BME280;18281;51.364;9.566;2023-05-11T09:48:23;99784.19;;;14.39;100.00
31681;BME280;18281;51.364;9.566;2023-05-11T09:50:51;99787.50;;;14.30;100.00
31681;BME280;18281;51.364;9.566;2023-05-11T09:53:17;99777.56;;;14.33;100.00
31681;BME280;18281;51.364;9.566;2023-05-11T09:55:55;99783.19;;;14.29;100.00
31681;BME280;18281;51.364;9.566;2023-05-11T09:58:20;99779.84;;;14.26;100.00
31681;BME280;18281;51.364;9.566;2023-05-11T10:00:50;99780.16;;;14.22;100.00
31681;BME280;18281;51.364;9.566;2023-05-11T10:03:17;99776.31;;;14.26;100.00
31681;BME280;18281;51.364;9.566;2023-05-11T10:05:55;99783.41;;;14.25;100.00
31681;BME280;18281;51.364;9.566;2023-05-11T10:08:27;99776.44;;;14.24;100.00
31681;BME280;18281;51.364;9.566;2023-05-11T10:10:53;99773.09;;;14.22;100.00
31681;BME280;18281;51.364;9.566;2023-05-11T10:13:20;99777.53;;;14.22;100.00
31681;BME280;18281;51.364;9.566;2023-05-11T10:15:49;99780.28;;;14.20;100.00
31681;BME280;18281;51.364;9.566;2023-05-11T10:18:16;99774.03;;;14.21;100.00
31681;BME280;18281;51.364;9.566;2023-05-11T10:20:41;99767.56;;;14.25;100.00
31681;BME280;18281;51.364;9.566;2023-05-11T10:23:07;99768.03;;;14.19;100.00
31681;BME280;18281;51.364;9.566;2023-05-11T10:25:34;99767.75;;;14.11;100.00
31681;BME280;18281;51.364;9.566;2023-05-11T10:27:59;99763.94;;;14.15;100.00
31681;BME280;18281;51.364;9.566;2023-05-11T10:30:25;99757.31;;;14.09;100.00
31681;BME280;18281;51.364;9.566;2023-05-11T10:32:51;99764.06;;;14.14;100.00
31681;BME280;18281;51.364;9.566;2023-05-11T10:35:20;99754.94;;;14.18;100.00
31681;BME280;18281;51.364;9.566;2023-05-11T10:37:45;99764.31;;;14.22;100.00
31681;BME280;18281;51.364;9.566;2023-05-11T10:40:12;99758.81;;;14.25;100.00
31681;BME280;18281;51.364;9.566;2023-05-11T10:45:32;99757.97;;;14.24;100.00
31681;BME280;18281;51.364;9.566;2023-05-11T10:58:42;99752.72;;;14.36;100.00
31681;BME280;18281;51.364;9.566;2023-05-11T11:01:33;99759.09;;;14.45;100.00
31681;BME280;18281;51.364;9.566;2023-05-11T11:04:08;99757.69;;;14.52;100.00
31681;BME280;18281;51.364;9.566;2023-05-11T11:06:37;99757.56;;;14.53;100.00
31681;BME280;18281;51.364;9.566;2023-05-11T11:09:05;99755.16;;;14.50;100.00
31681;BME280;18281;51.364;9.566;2023-05-11T11:11:40;99750.72;;;14.51;100.00
31681;BME280;18281;51.364;9.566;2023-05-11T11:14:08;99756.13;;;14.49;100.00
31681;BME280;18281;51.364;9.566;2023-05-11T11:16:37;99760.78;;;14.46;100.00
31681;BME280;18281;51.364;9.566;2023-05-11T11:22:01;99755.19;;;14.62;100.00
31681;BME280;18281;51.364;9.566;2023-05-11T11:27:01;99756.50;;;14.67;100.00
31681;BME280;18281;51.364;9.566;2023-05-11T11:29:28;99758.81;;;14.72;100.00
31681;BME280;18281;51.364;9.566;2023-05-11T11:31:54;99758.19;;;14.68;100.00
31681;BME280;18281;51.364;9.566;2023-05-11T11:39:25;99754.34;;;14.72;100.00
31681;BME280;18281;51.364;9.566;2023-05-11T11:42:13;99756.63;;;14.77;100.00
31681;BME280;18281;51.364;9.566;2023-05-11T11:44:41;99756.41;;;14.80;100.00
31681;BME280;18281;51.364;9.566;2023-05-11T11:47:14;99755.78;;;14.76;100.00
31681;BME280;18281;51.364;9.566;2023-05-11T11:49:42;99759.78;;;14.82;100.00
31681;BME280;18281;51.364;9.566;2023-05-11T11:52:32;99756.19;;;14.83;100.00
31681;BME280;18281;51.364;9.566;2023-05-11T11:54:59;99757.88;;;14.84;100.00
31681;BME280;18281;51.364;9.566;2023-05-11T12:00:03;99755.47;;;14.92;100.00
31681;BME280;18281;51.364;9.566;2023-05-11T12:02:39;99757.03;;;14.95;100.00
31681;BME280;18281;51.364;9.566;2023-05-11T12:05:15;99749.94;;;14.96;100.00
31681;BME280;18281;51.364;9.566;2023-05-11T12:07:51;99754.28;;;14.97;100.00
31681;BME280;18281;51.364;9.566;2023-05-11T12:10:18;99749.47;;;15.02;100.00
31681;BME280;18281;51.364;9.566;2023-05-11T12:12:44;99752.56;;;14.96;100.00
31681;BME280;18281;51.364;9.566;2023-05-11T12:15:23;99750.78;;;14.96;100.00
31681;BME280;18281;51.364;9.566;2023-05-11T12:17:48;99744.91;;;14.92;100.00
31681;BME280;18281;51.364;9.566;2023-05-11T12:20:16;99742.13;;;14.94;100.00
31681;BME280;18281;51.364;9.566;2023-05-11T12:22:43;99744.53;;;14.97;100.00
31681;BME280;18281;51.364;9.566;2023-05-11T12:25:09;99742.25;;;14.92;100.00
31681;BME280;18281;51.364;9.566;2023-05-11T12:27:52;99745.72;;;14.93;100.00
31681;BME280;18281;51.364;9.566;2023-05-11T12:30:28;99748.50;;;14.91;100.00
31681;BME280;18281;51.364;9.566;2023-05-11T12:32:54;99743.94;;;14.93;100.00
31681;BME280;18281;51.364;9.566;2023-05-11T12:35:28;99739.63;;;14.92;100.00
31681;BME280;18281;51.364;9.566;2023-05-11T12:37:55;99738.78;;;14.92;100.00
31681;BME280;18281;51.364;9.566;2023-05-11T12:40:21;99736.84;;;14.94;100.00
31681;BME280;18281;51.364;9.566;2023-05-11T12:45:16;99730.94;;;14.90;100.00
31681;BME280;18281;51.364;9.566;2023-05-11T12:47:42;99732.63;;;14.91;100.00
31681;BME280;18281;51.364;9.566;2023-05-11T12:50:08;99739.38;;;14.96;100.00
31681;BME280;18281;51.364;9.566;2023-05-11T12:52:33;99734.94;;;14.96;100.00
31681;BME280;18281;51.364;9.566;2023-05-11T12:54:59;99737.47;;;14.98;100.00
31681;BME280;18281;51.364;9.566;2023-05-11T12:57:26;99737.59;;;14.96;100.00
31681;BME280;18281;51.364;9.566;2023-05-11T13:00:12;99739.25;;;14.97;100.00
31681;BME280;18281;51.364;9.566;2023-05-11T13:02:48;99739.38;;;14.96;100.00
31681;BME280;18281;51.364;9.566;2023-05-11T13:05:15;99741.06;;;14.97;100.00
31681;BME280;18281;51.364;9.566;2023-05-11T13:07:41;99738.66;;;14.93;100.00
31681;BME280;18281;51.364;9.566;2023-05-11T13:10:08;99732.28;;;14.96;100.00
31681;BME280;18281;51.364;9.566;2023-05-11T13:12:35;99737.59;;;14.96;100.00
31681;BME280;18281;51.364;9.566;2023-05-11T13:17:29;99733.13;;;14.85;100.00
31681;BME280;18281;51.364;9.566;2023-05-11T13:19:55;99732.28;;;14.85;100.00
31681;BME280;18281;51.364;9.566;2023-05-11T13:22:21;99731.69;;;14.92;100.00
31681;BME280;18281;51.364;9.566;2023-05-11T13:24:46;99731.31;;;14.97;100.00
31681;BME280;18281;51.364;9.566;2023-05-11T13:27:11;99724.59;;;15.04;100.00
31681;BME280;18281;51.364;9.566;2023-05-11T13:29:37;99730.72;;;15.05;100.00
31681;BME280;18281;51.364;9.566;2023-05-11T13:32:02;99733.22;;;15.06;100.00
31681;BME280;18281;51.364;9.566;2023-05-11T13:34:28;99736.47;;;15.10;100.00